Webster, Wisconsin
Current Conditions -  °F | °C
As of 8:55 AM on Sunday 23 Nov 2014 (Local Time) from KRZN Reporting Station
Moderate Fog Moderate Fog  
Wind Chill: 41°   Ceiling: 500
Heat Index: 44°   Visibility: 0.5mi
Dew Point: 44°   Wind: 6mph
Humidity: 98%   Direction: 190°S
Pressure: 29.46"   Gusts: NA
Location:  45.88°N, 92.37°W
Report Text: KRZN 231455Z AUTO 19005KT 1/2SM FG OVC005 07/07 A2946 RMK AO2 T00680065
Loading
Personal Weather Stations






























Interactive Weather Map New forecast layout! Learn more

10-Day Weather Forecast

Advertisements
Track Severe Weather on mobile